sensor_id;sensor_type;location;lat;lon;timestamp;temperature;humidity
78886;DHT22;68269;52.514;5.722;2023-03-18T00:02:09;13.80;60.40
78886;DHT22;68269;52.514;5.722;2023-03-18T00:04:39;13.80;60.40
78886;DHT22;68269;52.514;5.722;2023-03-18T00:07:09;13.70;60.50
78886;DHT22;68269;52.514;5.722;2023-03-18T00:09:38;13.70;60.50
78886;DHT22;68269;52.514;5.722;2023-03-18T00:12:08;13.70;60.50
78886;DHT22;68269;52.514;5.722;2023-03-18T00:14:38;13.70;60.60
78886;DHT22;68269;52.514;5.722;2023-03-18T00:17:10;13.60;60.60
78886;DHT22;68269;52.514;5.722;2023-03-18T00:19:39;13.60;60.70
78886;DHT22;68269;52.514;5.722;2023-03-18T00:22:09;13.60;60.70
78886;DHT22;68269;52.514;5.722;2023-03-18T00:24:38;13.60;60.70
78886;DHT22;68269;52.514;5.722;2023-03-18T00:27:08;13.50;60.80
78886;DHT22;68269;52.514;5.722;2023-03-18T00:29:37;13.50;60.80
78886;DHT22;68269;52.514;5.722;2023-03-18T00:32:10;13.50;60.90
78886;DHT22;68269;52.514;5.722;2023-03-18T00:34:39;13.50;60.90
78886;DHT22;68269;52.514;5.722;2023-03-18T00:37:09;13.50;60.90
78886;DHT22;68269;52.514;5.722;2023-03-18T00:39:44;13.50;61.00
78886;DHT22;68269;52.514;5.722;2023-03-18T00:42:14;13.50;61.00
78886;DHT22;68269;52.514;5.722;2023-03-18T00:44:43;13.40;61.10
78886;DHT22;68269;52.514;5.722;2023-03-18T00:47:15;13.30;61.20
78886;DHT22;68269;52.514;5.722;2023-03-18T00:49:44;13.30;61.20
78886;DHT22;68269;52.514;5.722;2023-03-18T00:52:13;13.30;61.20
78886;DHT22;68269;52.514;5.722;2023-03-18T00:54:44;13.30;61.30
78886;DHT22;68269;52.514;5.722;2023-03-18T00:57:13;13.10;61.30
78886;DHT22;68269;52.514;5.722;2023-03-18T00:59:43;13.10;61.40
78886;DHT22;68269;52.514;5.722;2023-03-18T01:02:16;13.10;61.40
78886;DHT22;68269;52.514;5.722;2023-03-18T01:04:45;13.10;61.50
78886;DHT22;68269;52.514;5.722;2023-03-18T01:07:16;13.10;61.50
78886;DHT22;68269;52.514;5.722;2023-03-18T01:09:48;13.00;61.50
78886;DHT22;68269;52.514;5.722;2023-03-18T01:12:18;13.00;61.50
78886;DHT22;68269;52.514;5.722;2023-03-18T01:14:48;13.00;61.50
78886;DHT22;68269;52.514;5.722;2023-03-18T01:17:20;13.00;61.60
78886;DHT22;68269;52.514;5.722;2023-03-18T01:19:49;13.00;61.60
78886;DHT22;68269;52.514;5.722;2023-03-18T01:22:19;12.90;61.60
78886;DHT22;68269;52.514;5.722;2023-03-18T01:24:49;12.90;61.70
78886;DHT22;68269;52.514;5.722;2023-03-18T01:27:24;12.90;61.60
78886;DHT22;68269;52.514;5.722;2023-03-18T01:29:54;12.90;61.70
78886;DHT22;68269;52.514;5.722;2023-03-18T01:32:26;12.90;61.70
78886;DHT22;68269;52.514;5.722;2023-03-18T01:34:56;12.90;61.70
78886;DHT22;68269;52.514;5.722;2023-03-18T01:37:26;12.90;61.70
78886;DHT22;68269;52.514;5.722;2023-03-18T01:40:09;12.90;61.70
78886;DHT22;68269;52.514;5.722;2023-03-18T01:42:40;12.90;61.80
78886;DHT22;68269;52.514;5.722;2023-03-18T01:45:16;12.90;61.80
78886;DHT22;68269;52.514;5.722;2023-03-18T01:47:51;12.90;61.90
78886;DHT22;68269;52.514;5.722;2023-03-18T01:50:25;12.80;61.90
78886;DHT22;68269;52.514;5.722;2023-03-18T01:52:56;12.80;61.90
78886;DHT22;68269;52.514;5.722;2023-03-18T01:55:29;12.80;62.00
78886;DHT22;68269;52.514;5.722;2023-03-18T01:58:02;12.80;62.00
78886;DHT22;68269;52.514;5.722;2023-03-18T02:00:33;12.80;62.00
78886;DHT22;68269;52.514;5.722;2023-03-18T02:03:06;12.70;62.00
78886;DHT22;68269;52.514;5.722;2023-03-18T02:05:36;12.70;62.10
78886;DHT22;68269;52.514;5.722;2023-03-18T02:08:05;12.70;62.10
78886;DHT22;68269;52.514;5.722;2023-03-18T02:10:36;12.70;62.10
78886;DHT22;68269;52.514;5.722;2023-03-18T02:13:09;12.70;62.10
78886;DHT22;68269;52.514;5.722;2023-03-18T02:15:45;12.70;62.10
78886;DHT22;68269;52.514;5.722;2023-03-18T02:18:21;12.70;62.10
78886;DHT22;68269;52.514;5.722;2023-03-18T02:21:06;12.70;62.20
78886;DHT22;68269;52.514;5.722;2023-03-18T02:23:44;12.70;62.20
78886;DHT22;68269;52.514;5.722;2023-03-18T02:26:20;12.70;62.20
78886;DHT22;68269;52.514;5.722;2023-03-18T02:28:58;12.70;62.30
78886;DHT22;68269;52.514;5.722;2023-03-18T02:31:30;12.70;62.30
78886;DHT22;68269;52.514;5.722;2023-03-18T02:34:00;12.60;62.30
78886;DHT22;68269;52.514;5.722;2023-03-18T02:36:31;12.70;62.30
78886;DHT22;68269;52.514;5.722;2023-03-18T02:39:06;12.70;62.30
78886;DHT22;68269;52.514;5.722;2023-03-18T02:41:36;12.70;62.30
78886;DHT22;68269;52.514;5.722;2023-03-18T02:44:09;12.70;62.40
78886;DHT22;68269;52.514;5.722;2023-03-18T02:46:53;12.60;62.40
78886;DHT22;68269;52.514;5.722;2023-03-18T02:49:25;12.60;62.40
78886;DHT22;68269;52.514;5.722;2023-03-18T02:51:56;12.60;62.50
78886;DHT22;68269;52.514;5.722;2023-03-18T02:54:27;12.60;62.50
78886;DHT22;68269;52.514;5.722;2023-03-18T02:56:57;12.60;62.50
78886;DHT22;68269;52.514;5.722;2023-03-18T02:59:30;12.60;62.50
78886;DHT22;68269;52.514;5.722;2023-03-18T03:02:00;12.60;62.60
78886;DHT22;68269;52.514;5.722;2023-03-18T03:04:30;12.50;62.60
78886;DHT22;68269;52.514;5.722;2023-03-18T03:06:59;12.50;62.60
78886;DHT22;68269;52.514;5.722;2023-03-18T03:09:52;12.50;62.60
78886;DHT22;68269;52.514;5.722;2023-03-18T03:12:22;12.50;62.60
78886;DHT22;68269;52.514;5.722;2023-03-18T03:14:57;12.50;62.60
78886;DHT22;68269;52.514;5.722;2023-03-18T03:17:29;12.50;62.70
78886;DHT22;68269;52.514;5.722;2023-03-18T03:19:59;12.50;62.70
78886;DHT22;68269;52.514;5.722;2023-03-18T03:22:28;12.50;62.70
78886;DHT22;68269;52.514;5.722;2023-03-18T03:24:58;12.50;62.80
78886;DHT22;68269;52.514;5.722;2023-03-18T03:27:27;12.50;62.70
78886;DHT22;68269;52.514;5.722;2023-03-18T03:29:59;12.50;62.80
78886;DHT22;68269;52.514;5.722;2023-03-18T03:32:28;12.50;62.80
78886;DHT22;68269;52.514;5.722;2023-03-18T03:34:58;12.50;62.80
78886;DHT22;68269;52.514;5.722;2023-03-18T03:37:27;12.50;62.80
78886;DHT22;68269;52.514;5.722;2023-03-18T03:39:56;12.50;62.90
78886;DHT22;68269;52.514;5.722;2023-03-18T03:42:25;12.50;62.90
78886;DHT22;68269;52.514;5.722;2023-03-18T03:44:55;12.50;62.80
78886;DHT22;68269;52.514;5.722;2023-03-18T03:47:27;12.50;62.90
78886;DHT22;68269;52.514;5.722;2023-03-18T03:49:56;12.50;62.90
78886;DHT22;68269;52.514;5.722;2023-03-18T03:52:26;12.50;62.90
78886;DHT22;68269;52.514;5.722;2023-03-18T03:54:55;12.50;62.90
78886;DHT22;68269;52.514;5.722;2023-03-18T03:57:26;12.50;62.90
78886;DHT22;68269;52.514;5.722;2023-03-18T03:59:55;12.50;62.90
78886;DHT22;68269;52.514;5.722;2023-03-18T04:02:43;12.50;62.90
78886;DHT22;68269;52.514;5.722;2023-03-18T04:05:14;12.50;62.90
78886;DHT22;68269;52.514;5.722;2023-03-18T04:07:45;12.50;62.90
78886;DHT22;68269;52.514;5.722;2023-03-18T04:10:16;12.50;62.90
78886;DHT22;68269;52.514;5.722;2023-03-18T04:12:47;12.50;62.90
78886;DHT22;68269;52.514;5.722;2023-03-18T04:15:17;12.50;62.90
78886;DHT22;68269;52.514;5.722;2023-03-18T04:17:52;12.50;62.90
78886;DHT22;68269;52.514;5.722;2023-03-18T04:20:23;12.50;63.00
78886;DHT22;68269;52.514;5.722;2023-03-18T04:22:53;12.50;63.00
78886;DHT22;68269;52.514;5.722;2023-03-18T04:25:23;12.50;63.00
78886;DHT22;68269;52.514;5.722;2023-03-18T04:27:53;12.50;63.00
78886;DHT22;68269;52.514;5.722;2023-03-18T04:30:23;12.50;63.10
78886;DHT22;68269;52.514;5.722;2023-03-18T04:33:02;12.50;63.10
78886;DHT22;68269;52.514;5.722;2023-03-18T04:35:32;12.50;63.20
78886;DHT22;68269;52.514;5.722;2023-03-18T04:38:02;12.50;63.10
78886;DHT22;68269;52.514;5.722;2023-03-18T04:40:32;12.50;63.10
78886;DHT22;68269;52.514;5.722;2023-03-18T04:43:02;12.50;63.10
78886;DHT22;68269;52.514;5.722;2023-03-18T04:45:32;12.50;63.10
78886;DHT22;68269;52.514;5.722;2023-03-18T04:48:06;12.50;63.10
78886;DHT22;68269;52.514;5.722;2023-03-18T04:50:39;12.50;63.10
78886;DHT22;68269;52.514;5.722;2023-03-18T04:53:13;12.50;63.10
78886;DHT22;68269;52.514;5.722;2023-03-18T04:55:44;12.50;63.20
78886;DHT22;68269;52.514;5.722;2023-03-18T04:58:15;12.50;63.20
78886;DHT22;68269;52.514;5.722;2023-03-18T05:00:56;12.50;63.20
78886;DHT22;68269;52.514;5.722;2023-03-18T05:03:36;12.50;63.20
78886;DHT22;68269;52.514;5.722;2023-03-18T05:06:07;12.40;63.20
78886;DHT22;68269;52.514;5.722;2023-03-18T05:08:50;12.40;63.20
78886;DHT22;68269;52.514;5.722;2023-03-18T05:11:21;12.40;63.30
78886;DHT22;68269;52.514;5.722;2023-03-18T05:13:52;12.30;63.30
78886;DHT22;68269;52.514;5.722;2023-03-18T05:16:23;12.30;63.40
78886;DHT22;68269;52.514;5.722;2023-03-18T05:18:55;12.30;63.40
78886;DHT22;68269;52.514;5.722;2023-03-18T05:21:25;12.20;63.40
78886;DHT22;68269;52.514;5.722;2023-03-18T05:23:56;12.20;63.50
78886;DHT22;68269;52.514;5.722;2023-03-18T05:26:27;12.20;63.50
78886;DHT22;68269;52.514;5.722;2023-03-18T05:28:58;12.10;63.50
78886;DHT22;68269;52.514;5.722;2023-03-18T05:31:36;12.10;63.50
78886;DHT22;68269;52.514;5.722;2023-03-18T05:34:08;12.10;63.50
78886;DHT22;68269;52.514;5.722;2023-03-18T05:36:38;12.10;63.60
78886;DHT22;68269;52.514;5.722;2023-03-18T05:39:09;12.10;63.60
78886;DHT22;68269;52.514;5.722;2023-03-18T05:41:38;12.10;63.60
78886;DHT22;68269;52.514;5.722;2023-03-18T05:44:11;12.10;63.50
78886;DHT22;68269;52.514;5.722;2023-03-18T05:46:41;12.20;63.60
78886;DHT22;68269;52.514;5.722;2023-03-18T05:49:30;12.20;63.60
78886;DHT22;68269;52.514;5.722;2023-03-18T05:52:19;12.20;63.50
78886;DHT22;68269;52.514;5.722;2023-03-18T05:54:52;12.20;63.50
78886;DHT22;68269;52.514;5.722;2023-03-18T05:57:26;12.20;63.50
78886;DHT22;68269;52.514;5.722;2023-03-18T06:00:01;12.20;63.60
78886;DHT22;68269;52.514;5.722;2023-03-18T06:02:41;12.20;63.60
78886;DHT22;68269;52.514;5.722;2023-03-18T06:05:15;12.10;63.70
78886;DHT22;68269;52.514;5.722;2023-03-18T06:07:46;12.10;63.80
78886;DHT22;68269;52.514;5.722;2023-03-18T06:10:15;12.10;63.80
78886;DHT22;68269;52.514;5.722;2023-03-18T06:12:46;12.10;63.90
78886;DHT22;68269;52.514;5.722;2023-03-18T06:15:17;12.10;63.90
78886;DHT22;68269;52.514;5.722;2023-03-18T06:17:47;12.00;64.00
78886;DHT22;68269;52.514;5.722;2023-03-18T06:20:20;12.00;64.00
78886;DHT22;68269;52.514;5.722;2023-03-18T06:22:50;12.00;64.10
78886;DHT22;68269;52.514;5.722;2023-03-18T06:25:22;12.00;64.10
78886;DHT22;68269;52.514;5.722;2023-03-18T06:27:52;12.00;64.10
78886;DHT22;68269;52.514;5.722;2023-03-18T06:30:25;12.00;64.20
78886;DHT22;68269;52.514;5.722;2023-03-18T06:32:55;12.00;64.20
78886;DHT22;68269;52.514;5.722;2023-03-18T06:35:28;12.00;64.20
78886;DHT22;68269;52.514;5.722;2023-03-18T06:37:58;12.00;64.30
78886;DHT22;68269;52.514;5.722;2023-03-18T06:40:28;12.00;64.30
78886;DHT22;68269;52.514;5.722;2023-03-18T06:42:58;12.00;64.30
78886;DHT22;68269;52.514;5.722;2023-03-18T06:45:39;12.00;64.30
78886;DHT22;68269;52.514;5.722;2023-03-18T06:48:09;12.00;64.30
78886;DHT22;68269;52.514;5.722;2023-03-18T06:50:44;12.00;64.30
78886;DHT22;68269;52.514;5.722;2023-03-18T06:53:24;12.10;64.30
78886;DHT22;68269;52.514;5.722;2023-03-18T06:55:55;12.10;64.40
78886;DHT22;68269;52.514;5.722;2023-03-18T06:58:29;12.00;64.40
78886;DHT22;68269;52.514;5.722;2023-03-18T07:01:04;12.00;64.50
78886;DHT22;68269;52.514;5.722;2023-03-18T07:03:39;12.00;64.50
78886;DHT22;68269;52.514;5.722;2023-03-18T07:06:13;12.00;64.50
78886;DHT22;68269;52.514;5.722;2023-03-18T07:08:43;12.00;64.50
78886;DHT22;68269;52.514;5.722;2023-03-18T07:11:13;12.00;64.50
78886;DHT22;68269;52.514;5.722;2023-03-18T07:13:44;12.10;64.40
78886;DHT22;68269;52.514;5.722;2023-03-18T07:16:23;12.10;64.40
78886;DHT22;68269;52.514;5.722;2023-03-18T07:18:53;12.10;64.40
78886;DHT22;68269;52.514;5.722;2023-03-18T07:21:26;12.10;64.40
78886;DHT22;68269;52.514;5.722;2023-03-18T07:23:56;12.10;64.50
78886;DHT22;68269;52.514;5.722;2023-03-18T07:26:25;12.10;64.50
78886;DHT22;68269;52.514;5.722;2023-03-18T07:28:54;12.20;64.50
78886;DHT22;68269;52.514;5.722;2023-03-18T07:31:24;12.20;64.60
78886;DHT22;68269;52.514;5.722;2023-03-18T07:33:53;12.20;64.60
78886;DHT22;68269;52.514;5.722;2023-03-18T07:36:22;12.20;64.60
78886;DHT22;68269;52.514;5.722;2023-03-18T07:38:56;12.30;64.70
78886;DHT22;68269;52.514;5.722;2023-03-18T07:41:25;12.30;64.70
78886;DHT22;68269;52.514;5.722;2023-03-18T07:43:54;12.30;64.70
78886;DHT22;68269;52.514;5.722;2023-03-18T07:46:24;12.40;64.70
78886;DHT22;68269;52.514;5.722;2023-03-18T07:48:53;12.40;64.80
78886;DHT22;68269;52.514;5.722;2023-03-18T07:51:22;12.40;64.80
78886;DHT22;68269;52.514;5.722;2023-03-18T07:53:55;12.50;64.80
78886;DHT22;68269;52.514;5.722;2023-03-18T07:56:24;12.50;64.80
78886;DHT22;68269;52.514;5.722;2023-03-18T07:58:53;12.50;64.90
78886;DHT22;68269;52.514;5.722;2023-03-18T08:01:23;12.50;64.80
78886;DHT22;68269;52.514;5.722;2023-03-18T08:03:52;12.50;64.80
78886;DHT22;68269;52.514;5.722;2023-03-18T08:06:22;12.70;64.70
78886;DHT22;68269;52.514;5.722;2023-03-18T08:08:51;12.80;64.70
78886;DHT22;68269;52.514;5.722;2023-03-18T08:11:23;12.80;64.70
78886;DHT22;68269;52.514;5.722;2023-03-18T08:13:52;12.80;64.70
78886;DHT22;68269;52.514;5.722;2023-03-18T08:16:22;12.80;64.70
78886;DHT22;68269;52.514;5.722;2023-03-18T08:18:52;12.80;64.80
78886;DHT22;68269;52.514;5.722;2023-03-18T08:21:21;12.80;64.90
78886;DHT22;68269;52.514;5.722;2023-03-18T08:23:50;12.80;65.00
78886;DHT22;68269;52.514;5.722;2023-03-18T08:26:22;12.80;65.00
78886;DHT22;68269;52.514;5.722;2023-03-18T08:28:52;12.80;65.00
78886;DHT22;68269;52.514;5.722;2023-03-18T08:31:21;12.90;65.00
78886;DHT22;68269;52.514;5.722;2023-03-18T08:33:51;12.90;65.00
78886;DHT22;68269;52.514;5.722;2023-03-18T08:36:21;12.90;65.00
78886;DHT22;68269;52.514;5.722;2023-03-18T08:38:52;12.90;65.00
78886;DHT22;68269;52.514;5.722;2023-03-18T08:41:24;13.00;65.00
78886;DHT22;68269;52.514;5.722;2023-03-18T08:43:53;13.00;65.00
78886;DHT22;68269;52.514;5.722;2023-03-18T08:46:24;13.10;65.00
78886;DHT22;68269;52.514;5.722;2023-03-18T08:48:53;13.10;64.90
78886;DHT22;68269;52.514;5.722;2023-03-18T08:51:22;13.20;64.90
78886;DHT22;68269;52.514;5.722;2023-03-18T08:53:52;13.30;64.80
78886;DHT22;68269;52.514;5.722;2023-03-18T08:56:24;13.30;64.80
78886;DHT22;68269;52.514;5.722;2023-03-18T08:58:53;13.30;64.80
78886;DHT22;68269;52.514;5.722;2023-03-18T09:01:22;13.50;64.70
78886;DHT22;68269;52.514;5.722;2023-03-18T09:03:51;13.50;64.70
78886;DHT22;68269;52.514;5.722;2023-03-18T09:06:23;13.60;64.70
78886;DHT22;68269;52.514;5.722;2023-03-18T09:08:52;13.60;64.70
78886;DHT22;68269;52.514;5.722;2023-03-18T09:11:25;13.60;64.70
78886;DHT22;68269;52.514;5.722;2023-03-18T09:13:54;13.60;64.80
78886;DHT22;68269;52.514;5.722;2023-03-18T09:16:24;13.60;64.80
78886;DHT22;68269;52.514;5.722;2023-03-18T09:18:53;13.50;64.90
78886;DHT22;68269;52.514;5.722;2023-03-18T09:21:23;13.50;65.00
78886;DHT22;68269;52.514;5.722;2023-03-18T09:23:52;13.40;65.10
78886;DHT22;68269;52.514;5.722;2023-03-18T09:26:21;13.30;65.10
78886;DHT22;68269;52.514;5.722;2023-03-18T09:28:53;13.30;65.20
78886;DHT22;68269;52.514;5.722;2023-03-18T09:31:23;13.40;65.10
78886;DHT22;68269;52.514;5.722;2023-03-18T09:33:52;13.40;65.10
78886;DHT22;68269;52.514;5.722;2023-03-18T09:36:21;13.50;65.10
78886;DHT22;68269;52.514;5.722;2023-03-18T09:38:51;13.60;64.90
78886;DHT22;68269;52.514;5.722;2023-03-18T09:41:28;13.70;64.70
78886;DHT22;68269;52.514;5.722;2023-03-18T09:44:13;13.90;64.60
78886;DHT22;68269;52.514;5.722;2023-03-18T09:46:57;14.00;64.40
78886;DHT22;68269;52.514;5.722;2023-03-18T09:49:56;14.10;64.30
78886;DHT22;68269;52.514;5.722;2023-03-18T09:52:30;14.10;64.30
78886;DHT22;68269;52.514;5.722;2023-03-18T09:55:03;14.00;64.40
78886;DHT22;68269;52.514;5.722;2023-03-18T09:57:39;14.00;64.40
78886;DHT22;68269;52.514;5.722;2023-03-18T10:00:18;14.00;64.40
78886;DHT22;68269;52.514;5.722;2023-03-18T10:02:51;14.20;64.40
78886;DHT22;68269;52.514;5.722;2023-03-18T10:05:24;14.40;64.10
78886;DHT22;68269;52.514;5.722;2023-03-18T10:07:58;14.60;63.90
78886;DHT22;68269;52.514;5.722;2023-03-18T10:10:35;14.80;63.70
78886;DHT22;68269;52.514;5.722;2023-03-18T10:13:12;14.90;63.50
78886;DHT22;68269;52.514;5.722;2023-03-18T10:15:49;15.00;63.40
78886;DHT22;68269;52.514;5.722;2023-03-18T10:18:25;15.20;63.20
78886;DHT22;68269;52.514;5.722;2023-03-18T10:21:07;15.40;63.10
78886;DHT22;68269;52.514;5.722;2023-03-18T10:23:49;15.40;63.00
78886;DHT22;68269;52.514;5.722;2023-03-18T10:26:25;15.40;63.10
78886;DHT22;68269;52.514;5.722;2023-03-18T10:29:17;15.40;63.20
78886;DHT22;68269;52.514;5.722;2023-03-18T10:32:05;15.40;63.30
78886;DHT22;68269;52.514;5.722;2023-03-18T10:34:40;15.40;63.30
78886;DHT22;68269;52.514;5.722;2023-03-18T10:37:18;15.30;63.30
78886;DHT22;68269;52.514;5.722;2023-03-18T10:39:52;15.30;63.40
78886;DHT22;68269;52.514;5.722;2023-03-18T10:42:25;15.40;63.30
78886;DHT22;68269;52.514;5.722;2023-03-18T10:45:14;15.50;63.20
78886;DHT22;68269;52.514;5.722;2023-03-18T10:47:51;15.50;63.00
78886;DHT22;68269;52.514;5.722;2023-03-18T10:50:25;15.60;62.90
78886;DHT22;68269;52.514;5.722;2023-03-18T10:53:03;15.80;62.80
78886;DHT22;68269;52.514;5.722;2023-03-18T10:55:38;15.90;62.60
78886;DHT22;68269;52.514;5.722;2023-03-18T10:58:14;16.10;62.30
78886;DHT22;68269;52.514;5.722;2023-03-18T11:00:45;16.00;62.30
78886;DHT22;68269;52.514;5.722;2023-03-18T11:03:22;15.80;62.50
78886;DHT22;68269;52.514;5.722;2023-03-18T11:05:53;15.80;62.60
78886;DHT22;68269;52.514;5.722;2023-03-18T11:08:32;15.80;62.60
78886;DHT22;68269;52.514;5.722;2023-03-18T11:11:14;16.00;62.50
78886;DHT22;68269;52.514;5.722;2023-03-18T11:13:48;16.10;62.20
78886;DHT22;68269;52.514;5.722;2023-03-18T11:16:28;16.40;62.00
78886;DHT22;68269;52.514;5.722;2023-03-18T11:19:07;16.40;61.90
78886;DHT22;68269;52.514;5.722;2023-03-18T11:21:38;16.60;61.80
78886;DHT22;68269;52.514;5.722;2023-03-18T11:24:24;16.80;61.60
78886;DHT22;68269;52.514;5.722;2023-03-18T11:27:01;17.00;61.30
78886;DHT22;68269;52.514;5.722;2023-03-18T11:29:32;17.20;61.10
78886;DHT22;68269;52.514;5.722;2023-03-18T11:32:02;17.10;61.20
78886;DHT22;68269;52.514;5.722;2023-03-18T11:34:34;17.10;61.20
78886;DHT22;68269;52.514;5.722;2023-03-18T11:37:05;17.20;61.20
78886;DHT22;68269;52.514;5.722;2023-03-18T11:39:38;17.30;61.10
78886;DHT22;68269;52.514;5.722;2023-03-18T11:42:15;17.50;60.90
78886;DHT22;68269;52.514;5.722;2023-03-18T11:44:45;17.60;60.80
78886;DHT22;68269;52.514;5.722;2023-03-18T11:47:20;17.70;60.70
78886;DHT22;68269;52.514;5.722;2023-03-18T11:49:53;17.80;60.50
78886;DHT22;68269;52.514;5.722;2023-03-18T11:52:29;18.00;60.50
78886;DHT22;68269;52.514;5.722;2023-03-18T11:55:16;18.00;60.40
78886;DHT22;68269;52.514;5.722;2023-03-18T11:58:04;17.80;60.50
78886;DHT22;68269;52.514;5.722;2023-03-18T12:00:38;17.60;60.80
78886;DHT22;68269;52.514;5.722;2023-03-18T12:03:38;17.50;61.00
78886;DHT22;68269;52.514;5.722;2023-03-18T12:06:19;17.40;60.90
78886;DHT22;68269;52.514;5.722;2023-03-18T12:08:56;17.40;61.00
78886;DHT22;68269;52.514;5.722;2023-03-18T12:11:45;17.50;60.70
78886;DHT22;68269;52.514;5.722;2023-03-18T12:14:20;17.80;60.30
78886;DHT22;68269;52.514;5.722;2023-03-18T12:16:57;18.00;60.30
78886;DHT22;68269;52.514;5.722;2023-03-18T12:19:55;18.10;60.10
78886;DHT22;68269;52.514;5.722;2023-03-18T12:25:41;18.20;59.80
78886;DHT22;68269;52.514;5.722;2023-03-18T12:28:27;18.20;59.70
78886;DHT22;68269;52.514;5.722;2023-03-18T12:31:24;18.30;59.70
78886;DHT22;68269;52.514;5.722;2023-03-18T12:33:57;18.40;59.50
78886;DHT22;68269;52.514;5.722;2023-03-18T12:36:37;18.30;59.70
78886;DHT22;68269;52.514;5.722;2023-03-18T12:42:36;18.10;59.70
78886;DHT22;68269;52.514;5.722;2023-03-18T12:45:09;18.00;59.80
78886;DHT22;68269;52.514;5.722;2023-03-18T12:47:43;17.80;60.00
78886;DHT22;68269;52.514;5.722;2023-03-18T12:50:17;17.60;60.10
78886;DHT22;68269;52.514;5.722;2023-03-18T12:52:51;17.50;60.10
78886;DHT22;68269;52.514;5.722;2023-03-18T12:55:25;17.50;60.10
78886;DHT22;68269;52.514;5.722;2023-03-18T12:58:02;17.40;60.10
78886;DHT22;68269;52.514;5.722;2023-03-18T13:00:34;17.40;60.10
78886;DHT22;68269;52.514;5.722;2023-03-18T13:03:23;17.30;60.10
78886;DHT22;68269;52.514;5.722;2023-03-18T13:05:59;17.20;60.00
78886;DHT22;68269;52.514;5.722;2023-03-18T13:08:46;17.20;60.00
78886;DHT22;68269;52.514;5.722;2023-03-18T13:11:30;17.10;59.90
78886;DHT22;68269;52.514;5.722;2023-03-18T13:14:14;17.20;59.80
78886;DHT22;68269;52.514;5.722;2023-03-18T13:16:47;17.40;59.50
78886;DHT22;68269;52.514;5.722;2023-03-18T13:19:17;17.50;59.40
78886;DHT22;68269;52.514;5.722;2023-03-18T13:21:49;17.50;59.40
78886;DHT22;68269;52.514;5.722;2023-03-18T13:24:43;17.40;59.40
78886;DHT22;68269;52.514;5.722;2023-03-18T13:27:30;17.20;59.40
78886;DHT22;68269;52.514;5.722;2023-03-18T13:30:11;17.10;59.60
78886;DHT22;68269;52.514;5.722;2023-03-18T13:33:10;17.00;59.70
78886;DHT22;68269;52.514;5.722;2023-03-18T13:36:12;17.00;59.70
78886;DHT22;68269;52.514;5.722;2023-03-18T13:38:59;17.00;59.80
78886;DHT22;68269;52.514;5.722;2023-03-18T13:44:35;16.80;59.90
78886;DHT22;68269;52.514;5.722;2023-03-18T13:47:09;16.80;59.90
78886;DHT22;68269;52.514;5.722;2023-03-18T13:49:39;16.80;60.00
78886;DHT22;68269;52.514;5.722;2023-03-18T13:52:23;16.70;59.90
78886;DHT22;68269;52.514;5.722;2023-03-18T13:54:58;16.70;59.90
78886;DHT22;68269;52.514;5.722;2023-03-18T13:57:41;16.70;60.00
78886;DHT22;68269;52.514;5.722;2023-03-18T14:00:30;16.60;60.00
78886;DHT22;68269;52.514;5.722;2023-03-18T14:03:11;16.60;60.10
78886;DHT22;68269;52.514;5.722;2023-03-18T14:05:42;16.50;60.10
78886;DHT22;68269;52.514;5.722;2023-03-18T14:08:46;16.50;60.10
78886;DHT22;68269;52.514;5.722;2023-03-18T14:14:38;16.40;60.00
78886;DHT22;68269;52.514;5.722;2023-03-18T14:17:16;16.40;60.00
78886;DHT22;68269;52.514;5.722;2023-03-18T14:19:52;16.40;60.00
78886;DHT22;68269;52.514;5.722;2023-03-18T14:22:26;16.40;60.10
78886;DHT22;68269;52.514;5.722;2023-03-18T14:25:19;16.40;60.10
78886;DHT22;68269;52.514;5.722;2023-03-18T14:27:52;16.30;60.20
78886;DHT22;68269;52.514;5.722;2023-03-18T14:30:43;16.30;60.30
78886;DHT22;68269;52.514;5.722;2023-03-18T14:33:34;16.30;60.40
78886;DHT22;68269;52.514;5.722;2023-03-18T14:36:12;16.20;60.50
78886;DHT22;68269;52.514;5.722;2023-03-18T14:38:45;16.20;60.50
78886;DHT22;68269;52.514;5.722;2023-03-18T14:41:20;16.30;60.50
78886;DHT22;68269;52.514;5.722;2023-03-18T14:44:04;16.40;60.50
78886;DHT22;68269;52.514;5.722;2023-03-18T14:46:38;16.60;60.40
78886;DHT22;68269;52.514;5.722;2023-03-18T14:49:31;17.00;59.90
78886;DHT22;68269;52.514;5.722;2023-03-18T14:52:09;17.20;59.70
78886;DHT22;68269;52.514;5.722;2023-03-18T14:54:42;17.20;59.70
78886;DHT22;68269;52.514;5.722;2023-03-18T14:57:11;17.20;59.80
78886;DHT22;68269;52.514;5.722;2023-03-18T14:59:41;17.20;59.90
78886;DHT22;68269;52.514;5.722;2023-03-18T15:02:21;17.10;60.00
78886;DHT22;68269;52.514;5.722;2023-03-18T15:04:52;17.00;60.10
78886;DHT22;68269;52.514;5.722;2023-03-18T15:07:31;17.00;60.20
78886;DHT22;68269;52.514;5.722;2023-03-18T15:10:08;16.90;60.30
78886;DHT22;68269;52.514;5.722;2023-03-18T15:12:38;16.90;60.30
78886;DHT22;68269;52.514;5.722;2023-03-18T15:15:13;16.80;60.30
78886;DHT22;68269;52.514;5.722;2023-03-18T15:17:46;16.80;60.20
78886;DHT22;68269;52.514;5.722;2023-03-18T15:20:18;16.80;60.30
78886;DHT22;68269;52.514;5.722;2023-03-18T15:22:50;16.80;60.20
78886;DHT22;68269;52.514;5.722;2023-03-18T15:25:22;16.80;60.20
78886;DHT22;68269;52.514;5.722;2023-03-18T15:27:53;16.80;60.10
78886;DHT22;68269;52.514;5.722;2023-03-18T15:30:26;16.80;60.10
78886;DHT22;68269;52.514;5.722;2023-03-18T15:33:04;17.00;59.90
78886;DHT22;68269;52.514;5.722;2023-03-18T15:35:36;17.40;59.40
78886;DHT22;68269;52.514;5.722;2023-03-18T15:38:13;17.80;59.00
78886;DHT22;68269;52.514;5.722;2023-03-18T15:40:46;18.10;58.60
78886;DHT22;68269;52.514;5.722;2023-03-18T15:43:19;18.40;58.30
78886;DHT22;68269;52.514;5.722;2023-03-18T15:45:55;18.70;58.00
78886;DHT22;68269;52.514;5.722;2023-03-18T15:48:32;18.90;57.90
78886;DHT22;68269;52.514;5.722;2023-03-18T15:51:04;19.10;57.80
78886;DHT22;68269;52.514;5.722;2023-03-18T15:53:42;19.30;57.80
78886;DHT22;68269;52.514;5.722;2023-03-18T15:56:16;19.40;57.80
78886;DHT22;68269;52.514;5.722;2023-03-18T15:58:56;19.50;57.80
78886;DHT22;68269;52.514;5.722;2023-03-18T16:01:26;19.60;57.80
78886;DHT22;68269;52.514;5.722;2023-03-18T16:03:55;19.70;57.80
78886;DHT22;68269;52.514;5.722;2023-03-18T16:06:25;19.80;57.80
78886;DHT22;68269;52.514;5.722;2023-03-18T16:08:57;19.80;57.70
78886;DHT22;68269;52.514;5.722;2023-03-18T16:11:27;19.70;57.70
78886;DHT22;68269;52.514;5.722;2023-03-18T16:13:56;19.70;57.70
78886;DHT22;68269;52.514;5.722;2023-03-18T16:16:27;19.80;57.70
78886;DHT22;68269;52.514;5.722;2023-03-18T16:18:58;19.90;57.60
78886;DHT22;68269;52.514;5.722;2023-03-18T16:21:27;20.00;57.60
78886;DHT22;68269;52.514;5.722;2023-03-18T16:23:59;20.00;57.50
78886;DHT22;68269;52.514;5.722;2023-03-18T16:26:29;20.10;57.30